Main page
METAR-TAF:

METAR-TAF

Airports :

Mosjøen Airport. Kjærstad

Mosjøen, Norway

latitude: 65-48N, longitude: 013-08E, elevation: 70 m

Current weather observation

The report was made 39 minutes ago, at 22:50 UTC
Wind 1 kt from variable directions
Temperature 4°C
Humidity 87%
Pressure 1021 hPa
Visibility 10 km or more

METAR: ENMS 052250Z AUTO VRB01KT 9999 OVC035/// 04/02 Q1021 RMK WIND 412FT VRB01KT

Time: 01:29 (23:29 UTC)

Forecast

The report was made 9 hours and 29 minutes ago, at 14:00 UTC
Forecast valid from 05 at 15 UTC to 05 at 21 UTC
Wind 6 kt from the West/Northwest
Visibility 10 km or more
Few clouds at a height of 1500 ft, Towering cumulus.
Broken clouds at a height of 2500 ft

TAF: ENMS 051400Z 0515/0521 29006KT 9999 FEW015TCU BKN025

Weather observations and forecasts of more than 4000 airports (METAR and TAF reports).

The available stations are represented by yellow and red dots on the map.

Hover mouse over dot to see the name of the station.

Then click to see weather observations and forecasts.

To change the map : click on the green buttons with a black cross to zoom in, on the green button with a dash to zoom out, or on the green arrows for adjacent maps.


METAR-TAF: